createdAt,value
2023-04-19T00:03:26.204Z,8.46
2023-04-19T00:08:29.683Z,8.39
2023-04-19T00:13:32.996Z,8.32
2023-04-19T00:18:38.942Z,8.28
2023-04-19T00:23:42.529Z,8.22
2023-04-19T00:28:45.693Z,8.06
2023-04-19T00:33:50.349Z,8.09
2023-04-19T00:38:53.759Z,8.02
2023-04-19T00:43:57.114Z,7.93
2023-04-19T00:49:01.870Z,7.83
2023-04-19T00:54:06.777Z,7.75
2023-04-19T00:59:10.796Z,7.64
2023-04-19T01:04:17.584Z,7.52
2023-04-19T01:09:21.568Z,7.38
2023-04-19T01:14:25.053Z,7.23
2023-04-19T01:19:29.716Z,7.10
2023-04-19T01:24:34.722Z,6.95
2023-04-19T01:29:38.316Z,6.80
2023-04-19T01:34:42.990Z,6.65
2023-04-19T01:39:47.681Z,6.45
2023-04-19T01:44:50.893Z,6.34
2023-04-19T01:49:54.068Z,6.34
2023-04-19T01:54:58.996Z,6.39
2023-04-19T02:00:02.942Z,6.45
2023-04-19T02:05:08.710Z,6.52
2023-04-19T02:10:13.502Z,6.57
2023-04-19T02:15:16.792Z,6.58
2023-04-19T02:20:20.144Z,6.51
2023-04-19T02:25:25.100Z,6.37
2023-04-19T02:30:28.352Z,6.18
2023-04-19T02:35:31.869Z,6.00
2023-04-19T02:40:36.913Z,5.86
2023-04-19T02:45:40.124Z,5.75
2023-04-19T02:50:43.717Z,5.68
2023-04-19T02:55:48.445Z,5.57
2023-04-19T03:00:52.344Z,5.53
2023-04-19T03:05:55.655Z,5.54
2023-04-19T03:11:00.339Z,5.61
2023-04-19T03:16:03.630Z,5.69
2023-04-19T03:21:09.533Z,5.72
2023-04-19T03:26:14.326Z,5.74
2023-04-19T03:31:18.033Z,5.82
2023-04-19T03:36:21.820Z,5.93
2023-04-19T03:41:28.199Z,6.08
2023-04-19T03:46:31.944Z,6.23
2023-04-19T03:51:35.215Z,6.41
2023-04-19T03:56:39.965Z,6.63
2023-04-19T04:01:43.451Z,6.82
2023-04-19T04:06:46.820Z,7.02
2023-04-19T04:11:51.519Z,7.26
2023-04-19T04:16:54.728Z,7.51
2023-04-19T04:21:58.064Z,7.77
2023-04-19T04:27:03.429Z,7.97
2023-04-19T04:32:10.594Z,8.13
2023-04-19T04:37:14.134Z,8.37
2023-04-19T04:42:21.616Z,8.65
2023-04-19T04:47:25.018Z,8.92
2023-04-19T04:52:28.360Z,9.03
2023-04-19T04:57:33.046Z,9.28
2023-04-19T05:02:36.790Z,9.49
2023-04-19T05:07:40.266Z,9.62
2023-04-19T05:12:45.072Z,9.72
2023-04-19T05:17:48.333Z,9.96
2023-04-19T05:22:51.591Z,10.25
2023-04-19T05:27:56.297Z,10.77
2023-04-19T05:32:59.921Z,11.35
2023-04-19T05:38:03.567Z,11.90
2023-04-19T05:43:08.491Z,12.10
2023-04-19T05:48:11.816Z,12.33
2023-04-19T05:53:15.184Z,12.62
2023-04-19T05:58:19.939Z,12.92
2023-04-19T06:03:23.547Z,13.25
2023-04-19T06:08:27.060Z,13.78
2023-04-19T06:13:31.931Z,14.18
2023-04-19T06:18:35.164Z,14.54
2023-04-19T06:23:38.355Z,14.82
2023-04-19T06:28:43.098Z,15.08
2023-04-19T06:33:46.546Z,15.10
2023-04-19T06:38:50.391Z,14.85
2023-04-19T06:43:55.141Z,14.95
2023-04-19T06:48:58.504Z,15.38
2023-04-19T06:54:01.936Z,16.03
2023-04-19T06:59:06.746Z,16.72
2023-04-19T07:04:10.463Z,16.93
2023-04-19T07:09:13.808Z,16.65
2023-04-19T07:14:19.381Z,16.78
2023-04-19T07:19:23.073Z,16.94
2023-04-19T07:24:28.057Z,16.87
2023-04-19T07:29:32.772Z,17.37
2023-04-19T07:34:36.080Z,17.81
2023-04-19T07:39:39.578Z,19.67
2023-04-19T07:44:44.483Z,21.81
2023-04-19T07:49:47.924Z,24.22
2023-04-19T07:54:51.389Z,25.95
2023-04-19T07:59:59.271Z,27.53
2023-04-19T08:05:02.703Z,28.45
2023-04-19T08:10:07.713Z,28.89
2023-04-19T08:15:29.186Z,30.10
2023-04-19T08:20:36.934Z,30.57
2023-04-19T08:25:40.575Z,31.03
2023-04-19T08:30:45.587Z,31.77
2023-04-19T08:35:48.966Z,32.90
2023-04-19T08:40:55.160Z,34.28
2023-04-19T08:46:00.380Z,35.22
2023-04-19T08:51:05.859Z,35.66
2023-04-19T08:56:17.874Z,36.05
2023-04-19T09:01:34.991Z,36.75
2023-04-19T09:06:41.822Z,38.16
2023-04-19T09:11:45.411Z,38.65
2023-04-19T09:16:52.294Z,37.91
2023-04-19T09:21:56.575Z,38.04
2023-04-19T09:26:59.987Z,39.27
2023-04-19T09:32:04.997Z,40.28
2023-04-19T09:37:28.026Z,40.53
2023-04-19T09:48:04.764Z,41.51
2023-04-19T09:53:08.659Z,40.60
2023-04-19T09:58:12.025Z,40.23
2023-04-19T10:03:17.798Z,40.50
2023-04-19T10:08:21.501Z,40.88
2023-04-19T10:13:26.788Z,41.70
2023-04-19T10:18:32.899Z,42.45
2023-04-19T10:23:36.592Z,42.51
2023-04-19T10:28:40.051Z,42.96
2023-04-19T10:33:44.715Z,43.27
2023-04-19T10:38:51.635Z,43.79
2023-04-19T10:44:10.482Z,43.10
2023-04-19T10:49:15.208Z,43.30
2023-04-19T10:54:31.727Z,43.07
2023-04-19T10:59:35.918Z,43.71
2023-04-19T11:05:04.311Z,41.86
2023-04-19T11:10:10.246Z,40.69
2023-04-19T11:15:13.481Z,35.64
2023-04-19T11:20:18.146Z,38.17
2023-04-19T11:25:22.962Z,37.82
2023-04-19T11:30:30.998Z,37.79
2023-04-19T11:35:36.212Z,40.21
2023-04-19T11:40:39.847Z,41.41
2023-04-19T11:45:43.218Z,38.14
2023-04-19T11:50:49.582Z,39.36
2023-04-19T11:55:56.217Z,41.38
2023-04-19T12:01:06.581Z,42.89
2023-04-19T12:06:13.786Z,44.13
2023-04-19T12:11:18.978Z,44.41
2023-04-19T12:16:30.955Z,44.29
2023-04-19T12:21:35.561Z,44.14
2023-04-19T12:28:14.477Z,43.94
2023-04-19T12:32:18.323Z,44.00
2023-04-19T12:37:23.334Z,43.32
2023-04-19T12:42:26.781Z,42.07
2023-04-19T12:47:30.872Z,41.11
2023-04-19T12:52:35.758Z,41.04
2023-04-19T12:57:39.089Z,41.45
2023-04-19T13:02:42.640Z,38.14
2023-04-19T13:07:47.589Z,33.90
2023-04-19T13:12:50.941Z,34.35
2023-04-19T13:17:54.508Z,33.37
2023-04-19T13:22:59.305Z,34.10
2023-04-19T13:28:02.662Z,35.57
2023-04-19T13:33:08.747Z,36.44
2023-04-19T13:38:13.657Z,35.60
2023-04-19T13:43:16.917Z,34.77
2023-04-19T13:48:20.178Z,35.26
2023-04-19T13:53:26.081Z,35.27
2023-04-19T13:58:29.345Z,35.86
2023-04-19T14:03:33.359Z,36.05
2023-04-19T14:08:38.242Z,36.23
2023-04-19T14:13:41.672Z,36.13
2023-04-19T14:18:44.863Z,35.81
2023-04-19T14:23:49.784Z,32.31
2023-04-19T14:28:53.221Z,28.26
2023-04-19T14:33:56.820Z,27.67
2023-04-19T14:39:01.645Z,28.88
2023-04-19T14:44:04.903Z,29.69
2023-04-19T14:49:08.230Z,30.01
2023-04-19T14:54:12.871Z,27.77
2023-04-19T14:59:16.498Z,26.56
2023-04-19T15:04:20.161Z,25.99
2023-04-19T15:09:25.107Z,26.04
2023-04-19T15:14:28.493Z,24.94
2023-04-19T15:19:32.183Z,22.56
2023-04-19T15:24:36.915Z,20.79
2023-04-19T15:29:41.461Z,19.50
2023-04-19T15:34:44.963Z,18.56
2023-04-19T15:39:50.358Z,17.81
2023-04-19T15:44:53.633Z,17.16
2023-04-19T15:49:57.668Z,16.58
2023-04-19T15:55:02.323Z,16.10
2023-04-19T16:00:09.645Z,15.67
2023-04-19T16:05:13.060Z,15.25
2023-04-19T16:10:17.944Z,14.86
2023-04-19T16:15:21.255Z,14.52
2023-04-19T16:20:24.593Z,14.18
2023-04-19T16:25:29.687Z,13.86
2023-04-19T16:30:33.157Z,13.56
2023-04-19T16:35:36.362Z,13.22
2023-04-19T16:40:41.619Z,12.64
2023-04-19T16:45:45.060Z,12.65
2023-04-19T16:50:50.323Z,12.41
2023-04-19T16:55:56.472Z,12.19
2023-04-19T17:01:01.949Z,11.97
2023-04-19T17:06:05.884Z,11.76
2023-04-19T17:11:11.141Z,11.49
2023-04-19T17:16:14.439Z,11.34
2023-04-19T17:21:17.757Z,11.15
2023-04-19T17:26:22.490Z,10.98
2023-04-19T17:31:25.878Z,10.84
2023-04-19T17:36:29.345Z,10.71
2023-04-19T17:41:34.006Z,10.61
2023-04-19T17:46:38.790Z,10.48
2023-04-19T17:51:42.124Z,10.39
2023-04-19T17:56:46.940Z,10.23
2023-04-19T18:01:50.452Z,10.07
2023-04-19T18:06:53.818Z,9.94
2023-04-19T18:11:58.587Z,9.76
2023-04-19T18:17:02.751Z,9.56
2023-04-19T18:22:05.951Z,9.38
2023-04-19T18:27:10.872Z,9.24
2023-04-19T18:32:16.986Z,9.16
2023-04-19T18:37:20.678Z,9.08
2023-04-19T18:42:25.607Z,8.93
2023-04-19T18:47:28.971Z,8.69
2023-04-19T18:52:32.270Z,8.73
2023-04-19T18:57:39.006Z,8.69
2023-04-19T19:02:43.821Z,8.57
2023-04-19T19:07:48.280Z,8.45
2023-04-19T19:12:53.283Z,8.29
2023-04-19T19:17:57.263Z,8.24
2023-04-19T19:23:00.793Z,8.09
2023-04-19T19:28:09.766Z,8.09
2023-04-19T19:33:14.091Z,8.04
2023-04-19T19:38:17.747Z,8.04
2023-04-19T19:43:22.669Z,8.04
2023-04-19T19:48:26.560Z,8.00
2023-04-19T19:53:33.321Z,7.91
2023-04-19T19:58:49.584Z,7.78
2023-04-19T20:03:56.394Z,7.68
2023-04-19T20:09:00.142Z,7.63
2023-04-19T20:14:05.104Z,7.59
2023-04-19T20:19:10.766Z,7.41
2023-04-19T20:24:14.643Z,7.27
2023-04-19T20:29:19.368Z,7.15
2023-04-19T20:34:22.817Z,7.00
2023-04-19T20:39:26.732Z,6.84
2023-04-19T20:44:31.306Z,6.67
2023-04-19T20:49:34.615Z,6.57
2023-04-19T20:54:38.994Z,6.50
2023-04-19T20:59:45.096Z,6.37
2023-04-19T21:04:48.517Z,6.34
2023-04-19T21:09:51.881Z,6.24
2023-04-19T21:14:56.672Z,6.20
2023-04-19T21:19:59.908Z,6.17
2023-04-19T21:25:03.601Z,6.17
2023-04-19T21:30:10.516Z,6.08
2023-04-19T21:35:15.038Z,6.03
2023-04-19T21:40:18.189Z,5.92
2023-04-19T21:45:23.149Z,5.81
2023-04-19T21:50:26.567Z,5.71
2023-04-19T21:55:30.340Z,5.57
2023-04-19T22:00:35.130Z,5.42
2023-04-19T22:05:38.831Z,5.34
2023-04-19T22:10:43.225Z,5.33
2023-04-19T22:15:47.958Z,5.27
2023-04-19T22:20:52.257Z,5.19
2023-04-19T22:25:55.850Z,5.05
2023-04-19T22:31:00.540Z,4.80
2023-04-19T22:36:03.875Z,4.62
2023-04-19T22:41:07.319Z,4.51
2023-04-19T22:46:11.953Z,4.39
2023-04-19T22:51:18.295Z,4.37
2023-04-19T22:56:21.763Z,4.40
2023-04-19T23:01:26.652Z,4.35
2023-04-19T23:06:30.481Z,4.23
2023-04-19T23:11:34.905Z,4.14
2023-04-19T23:16:39.726Z,4.05
2023-04-19T23:21:42.968Z,4.01
2023-04-19T23:26:46.567Z,3.91
2023-04-19T23:31:51.502Z,3.89
2023-04-19T23:36:54.831Z,3.93
2023-04-19T23:41:58.237Z,3.89
2023-04-19T23:47:03.790Z,3.77
2023-04-19T23:52:07.057Z,3.68
2023-04-19T23:57:10.376Z,3.63
